sensor_id;sensor_type;location;lat;lon;timestamp;temperature;humidity
41080;DHT22;26826;50.718;7.114;2024-01-15T00:08:20;1.80;99.90
41080;DHT22;26826;50.718;7.114;2024-01-15T00:18:20;1.80;99.90
41080;DHT22;26826;50.718;7.114;2024-01-15T00:28:21;1.90;99.90
41080;DHT22;26826;50.718;7.114;2024-01-15T00:38:21;1.80;99.90
41080;DHT22;26826;50.718;7.114;2024-01-15T00:48:22;1.40;99.90
41080;DHT22;26826;50.718;7.114;2024-01-15T00:58:22;1.40;99.90
41080;DHT22;26826;50.718;7.114;2024-01-15T01:08:23;1.10;99.90
41080;DHT22;26826;50.718;7.114;2024-01-15T01:18:23;1.00;99.90
41080;DHT22;26826;50.718;7.114;2024-01-15T01:28:23;1.10;99.90
41080;DHT22;26826;50.718;7.114;2024-01-15T01:38:24;1.20;99.90
41080;DHT22;26826;50.718;7.114;2024-01-15T01:48:24;1.10;99.90
41080;DHT22;26826;50.718;7.114;2024-01-15T01:58:26;0.90;99.90
41080;DHT22;26826;50.718;7.114;2024-01-15T02:08:26;0.90;99.90
41080;DHT22;26826;50.718;7.114;2024-01-15T02:18:27;1.10;99.90
41080;DHT22;26826;50.718;7.114;2024-01-15T02:28:27;1.20;99.90
41080;DHT22;26826;50.718;7.114;2024-01-15T02:38:28;1.20;99.90
41080;DHT22;26826;50.718;7.114;2024-01-15T02:48:28;1.20;99.90
41080;DHT22;26826;50.718;7.114;2024-01-15T02:58:29;1.10;99.90
41080;DHT22;26826;50.718;7.114;2024-01-15T03:08:29;1.10;99.90
41080;DHT22;26826;50.718;7.114;2024-01-15T03:18:30;1.10;99.90
41080;DHT22;26826;50.718;7.114;2024-01-15T03:28:30;1.20;99.90
41080;DHT22;26826;50.718;7.114;2024-01-15T03:38:30;1.20;99.90
41080;DHT22;26826;50.718;7.114;2024-01-15T03:48:31;1.10;99.90
41080;DHT22;26826;50.718;7.114;2024-01-15T03:58:31;1.20;99.90
41080;DHT22;26826;50.718;7.114;2024-01-15T04:08:32;1.10;99.90
41080;DHT22;26826;50.718;7.114;2024-01-15T04:18:32;1.10;99.90
41080;DHT22;26826;50.718;7.114;2024-01-15T04:28:33;1.10;99.90
41080;DHT22;26826;50.718;7.114;2024-01-15T04:38:33;1.20;99.90
41080;DHT22;26826;50.718;7.114;2024-01-15T04:48:36;1.20;99.90
41080;DHT22;26826;50.718;7.114;2024-01-15T04:58:37;1.10;99.90
41080;DHT22;26826;50.718;7.114;2024-01-15T05:08:37;1.00;99.90
41080;DHT22;26826;50.718;7.114;2024-01-15T05:18:37;1.10;99.90
41080;DHT22;26826;50.718;7.114;2024-01-15T05:28:38;1.20;99.90
41080;DHT22;26826;50.718;7.114;2024-01-15T05:38:40;1.20;99.90
41080;DHT22;26826;50.718;7.114;2024-01-15T05:48:41;1.20;99.90
41080;DHT22;26826;50.718;7.114;2024-01-15T05:58:41;1.10;99.90
41080;DHT22;26826;50.718;7.114;2024-01-15T06:08:42;1.10;99.90
41080;DHT22;26826;50.718;7.114;2024-01-15T06:18:42;1.10;99.90
41080;DHT22;26826;50.718;7.114;2024-01-15T06:28:43;1.10;99.90
41080;DHT22;26826;50.718;7.114;2024-01-15T06:38:43;1.10;99.90
41080;DHT22;26826;50.718;7.114;2024-01-15T06:48:44;1.00;99.90
41080;DHT22;26826;50.718;7.114;2024-01-15T06:58:45;1.10;99.90
41080;DHT22;26826;50.718;7.114;2024-01-15T07:08:45;1.10;99.90
41080;DHT22;26826;50.718;7.114;2024-01-15T07:18:46;1.00;99.90
41080;DHT22;26826;50.718;7.114;2024-01-15T07:28:46;1.00;99.90
41080;DHT22;26826;50.718;7.114;2024-01-15T07:38:47;1.10;99.90
41080;DHT22;26826;50.718;7.114;2024-01-15T07:48:47;1.20;99.90
41080;DHT22;26826;50.718;7.114;2024-01-15T07:58:48;1.20;99.90
41080;DHT22;26826;50.718;7.114;2024-01-15T08:08:48;1.30;99.90
41080;DHT22;26826;50.718;7.114;2024-01-15T08:18:49;1.40;99.90
41080;DHT22;26826;50.718;7.114;2024-01-15T08:28:49;1.40;99.90
41080;DHT22;26826;50.718;7.114;2024-01-15T08:38:50;1.40;99.90
41080;DHT22;26826;50.718;7.114;2024-01-15T08:48:50;1.60;99.90
41080;DHT22;26826;50.718;7.114;2024-01-15T08:58:51;1.70;99.90
41080;DHT22;26826;50.718;7.114;2024-01-15T09:08:51;1.70;99.90
41080;DHT22;26826;50.718;7.114;2024-01-15T09:18:52;1.80;99.90
41080;DHT22;26826;50.718;7.114;2024-01-15T09:28:52;1.80;99.90
41080;DHT22;26826;50.718;7.114;2024-01-15T09:38:53;1.90;99.90
41080;DHT22;26826;50.718;7.114;2024-01-15T09:48:53;1.80;99.90
41080;DHT22;26826;50.718;7.114;2024-01-15T09:58:54;1.80;99.90
41080;DHT22;26826;50.718;7.114;2024-01-15T10:08:54;1.60;99.90
41080;DHT22;26826;50.718;7.114;2024-01-15T10:18:56;1.20;99.90
41080;DHT22;26826;50.718;7.114;2024-01-15T10:28:58;1.00;99.90
41080;DHT22;26826;50.718;7.114;2024-01-15T10:38:58;1.00;99.90
41080;DHT22;26826;50.718;7.114;2024-01-15T10:49:00;1.20;99.90
41080;DHT22;26826;50.718;7.114;2024-01-15T10:59:00;1.20;99.90
41080;DHT22;26826;50.718;7.114;2024-01-15T11:09:01;1.10;99.90
41080;DHT22;26826;50.718;7.114;2024-01-15T11:19:04;1.20;99.90
41080;DHT22;26826;50.718;7.114;2024-01-15T11:29:49;1.00;99.90
41080;DHT22;26826;50.718;7.114;2024-01-15T11:59:37;1.10;99.90
41080;DHT22;26826;50.718;7.114;2024-01-15T12:09:42;0.90;99.90
41080;DHT22;26826;50.718;7.114;2024-01-15T12:19:43;1.20;99.90
41080;DHT22;26826;50.718;7.114;2024-01-15T12:29:43;1.40;99.90
41080;DHT22;26826;50.718;7.114;2024-01-15T12:39:44;1.40;99.90
41080;DHT22;26826;50.718;7.114;2024-01-15T12:49:47;1.60;99.90
41080;DHT22;26826;50.718;7.114;2024-01-15T12:59:54;1.60;99.90
41080;DHT22;26826;50.718;7.114;2024-01-15T13:09:54;1.90;99.90
41080;DHT22;26826;50.718;7.114;2024-01-15T13:19:54;1.90;99.90
41080;DHT22;26826;50.718;7.114;2024-01-15T13:29:55;1.90;99.90
41080;DHT22;26826;50.718;7.114;2024-01-15T13:39:55;2.10;99.90
41080;DHT22;26826;50.718;7.114;2024-01-15T13:49:56;2.00;99.90
41080;DHT22;26826;50.718;7.114;2024-01-15T13:59:57;1.90;99.90
41080;DHT22;26826;50.718;7.114;2024-01-15T14:09:57;1.80;99.90
41080;DHT22;26826;50.718;7.114;2024-01-15T14:19:58;1.80;99.90
41080;DHT22;26826;50.718;7.114;2024-01-15T14:29:59;1.80;99.90
41080;DHT22;26826;50.718;7.114;2024-01-15T14:39:59;1.70;99.90
41080;DHT22;26826;50.718;7.114;2024-01-15T14:50:00;1.60;99.90
41080;DHT22;26826;50.718;7.114;2024-01-15T15:00:00;1.50;99.90
41080;DHT22;26826;50.718;7.114;2024-01-15T15:10:00;1.40;99.90
41080;DHT22;26826;50.718;7.114;2024-01-15T15:20:01;1.20;99.90
41080;DHT22;26826;50.718;7.114;2024-01-15T15:30:03;1.10;99.90
41080;DHT22;26826;50.718;7.114;2024-01-15T15:40:04;1.20;99.90
41080;DHT22;26826;50.718;7.114;2024-01-15T15:50:08;1.20;99.90
41080;DHT22;26826;50.718;7.114;2024-01-15T16:00:09;1.20;99.90
41080;DHT22;26826;50.718;7.114;2024-01-15T16:10:09;1.10;99.90
41080;DHT22;26826;50.718;7.114;2024-01-15T16:20:10;1.00;99.90
41080;DHT22;26826;50.718;7.114;2024-01-15T16:30:10;1.10;99.90
41080;DHT22;26826;50.718;7.114;2024-01-15T16:40:11;1.00;99.90
41080;DHT22;26826;50.718;7.114;2024-01-15T16:50:12;1.00;99.90
41080;DHT22;26826;50.718;7.114;2024-01-15T17:00:12;1.00;99.90
41080;DHT22;26826;50.718;7.114;2024-01-15T17:10:13;1.10;99.90
41080;DHT22;26826;50.718;7.114;2024-01-15T17:20:14;1.00;99.90
41080;DHT22;26826;50.718;7.114;2024-01-15T17:30:14;1.00;99.90
41080;DHT22;26826;50.718;7.114;2024-01-15T17:50:25;0.90;99.90
41080;DHT22;26826;50.718;7.114;2024-01-15T18:00:25;0.80;99.90
41080;DHT22;26826;50.718;7.114;2024-01-15T18:10:26;0.70;99.90
41080;DHT22;26826;50.718;7.114;2024-01-15T18:20:27;0.90;99.90
41080;DHT22;26826;50.718;7.114;2024-01-15T18:30:27;0.80;99.90
41080;DHT22;26826;50.718;7.114;2024-01-15T18:40:27;0.70;99.90
41080;DHT22;26826;50.718;7.114;2024-01-15T18:50:32;0.80;99.90
41080;DHT22;26826;50.718;7.114;2024-01-15T19:00:33;0.80;99.90
41080;DHT22;26826;50.718;7.114;2024-01-15T19:10:33;0.90;99.90
41080;DHT22;26826;50.718;7.114;2024-01-15T19:20:33;0.90;99.90
41080;DHT22;26826;50.718;7.114;2024-01-15T19:30:34;0.90;99.90
41080;DHT22;26826;50.718;7.114;2024-01-15T19:40:35;0.70;99.90
41080;DHT22;26826;50.718;7.114;2024-01-15T19:50:35;0.70;99.90
41080;DHT22;26826;50.718;7.114;2024-01-15T20:00:36;0.60;99.90
41080;DHT22;26826;50.718;7.114;2024-01-15T20:10:36;0.80;99.90
41080;DHT22;26826;50.718;7.114;2024-01-15T20:20:39;0.70;99.90
41080;DHT22;26826;50.718;7.114;2024-01-15T20:30:41;0.70;99.90
41080;DHT22;26826;50.718;7.114;2024-01-15T20:40:42;0.70;99.90
41080;DHT22;26826;50.718;7.114;2024-01-15T20:50:42;0.70;99.90
41080;DHT22;26826;50.718;7.114;2024-01-15T21:00:42;0.60;99.90
41080;DHT22;26826;50.718;7.114;2024-01-15T21:10:43;0.70;99.90
41080;DHT22;26826;50.718;7.114;2024-01-15T21:20:43;0.80;99.90
41080;DHT22;26826;50.718;7.114;2024-01-15T21:30:44;0.90;99.90
41080;DHT22;26826;50.718;7.114;2024-01-15T21:40:46;0.90;99.90
41080;DHT22;26826;50.718;7.114;2024-01-15T21:50:47;0.90;99.90
41080;DHT22;26826;50.718;7.114;2024-01-15T22:00:47;1.00;99.90
41080;DHT22;26826;50.718;7.114;2024-01-15T22:10:47;0.80;99.90
41080;DHT22;26826;50.718;7.114;2024-01-15T22:20:48;0.80;99.90
41080;DHT22;26826;50.718;7.114;2024-01-15T22:30:48;0.80;99.90
41080;DHT22;26826;50.718;7.114;2024-01-15T22:40:49;0.90;99.90
41080;DHT22;26826;50.718;7.114;2024-01-15T22:50:50;1.10;99.90
41080;DHT22;26826;50.718;7.114;2024-01-15T23:00:50;1.10;99.90
41080;DHT22;26826;50.718;7.114;2024-01-15T23:10:51;1.20;99.90
41080;DHT22;26826;50.718;7.114;2024-01-15T23:20:51;1.20;99.90
41080;DHT22;26826;50.718;7.114;2024-01-15T23:30:52;1.20;99.90
41080;DHT22;26826;50.718;7.114;2024-01-15T23:40:53;1.20;99.90
41080;DHT22;26826;50.718;7.114;2024-01-15T23:50:53;1.10;99.90
